createdAt,value
2023-01-17T04:58:45.570Z,5.61
2023-01-17T05:01:49.342Z,5.57
2023-01-17T05:04:51.461Z,5.59
2023-01-17T05:07:58.707Z,5.55
2023-01-17T05:11:00.928Z,5.49
2023-01-17T05:14:03.367Z,5.60
2023-01-17T05:17:05.511Z,5.72
2023-01-17T05:20:08.886Z,5.58
2023-01-17T05:23:11.553Z,5.66
2023-01-17T05:26:14.135Z,5.78
2023-01-17T05:29:16.251Z,5.70
2023-01-17T05:32:18.632Z,5.71
2023-01-17T05:35:26.978Z,5.56
2023-01-17T05:38:29.716Z,5.52
2023-01-17T05:41:31.846Z,5.59
2023-01-17T05:44:34.262Z,5.73
2023-01-17T05:47:36.404Z,5.83
2023-01-17T05:50:38.822Z,5.80
2023-01-17T05:53:40.979Z,5.64
2023-01-17T05:56:43.776Z,5.59
2023-01-17T05:59:45.982Z,5.71
2023-01-17T06:02:49.401Z,5.76
2023-01-17T06:05:51.829Z,5.64
2023-01-17T06:08:53.918Z,5.71
2023-01-17T06:11:56.275Z,5.80
2023-01-17T06:14:58.398Z,5.84
2023-01-17T06:18:08.312Z,5.87
2023-01-17T06:21:10.530Z,5.79
2023-01-17T06:24:13.229Z,5.78
2023-01-17T06:27:15.518Z,5.81
2023-01-17T06:30:18.139Z,5.72
2023-01-17T06:33:20.261Z,5.66
2023-01-17T06:36:24.276Z,5.61
2023-01-17T06:39:26.407Z,5.60
2023-01-17T06:42:28.789Z,5.55
2023-01-17T06:45:33.279Z,5.58
2023-01-17T06:48:35.639Z,5.56
2023-01-17T06:51:37.768Z,5.54
2023-01-17T06:54:40.133Z,5.59
2023-01-17T06:57:42.253Z,5.60
2023-01-17T07:00:44.777Z,5.76
2023-01-17T07:03:46.955Z,5.80
2023-01-17T07:06:49.358Z,5.83
2023-01-17T07:09:51.485Z,5.76
2023-01-17T07:12:59.631Z,5.79
2023-01-17T07:16:02.265Z,5.86
2023-01-17T07:19:05.122Z,5.83
2023-01-17T07:22:07.209Z,5.80
2023-01-17T07:25:09.765Z,5.71
2023-01-17T07:28:11.877Z,5.70
2023-01-17T07:31:14.374Z,5.66
2023-01-17T07:34:16.616Z,5.64
2023-01-17T07:37:20.011Z,5.69
2023-01-17T07:40:23.033Z,5.72
2023-01-17T07:43:25.608Z,5.63
2023-01-17T07:46:28.774Z,5.54
2023-01-17T07:49:31.126Z,5.55
2023-01-17T07:52:33.426Z,5.51
2023-01-17T07:55:35.936Z,5.44
2023-01-17T07:58:38.146Z,5.51
2023-01-17T08:01:40.670Z,5.36
2023-01-17T08:04:43.163Z,5.33
2023-01-17T08:07:45.288Z,5.30
2023-01-17T08:10:47.741Z,5.22
2023-01-17T08:13:49.928Z,5.30
2023-01-17T08:16:52.936Z,5.30
2023-01-17T08:19:55.459Z,5.33
2023-01-17T08:22:58.115Z,5.25
2023-01-17T08:26:01.609Z,5.30
2023-01-17T08:29:04.007Z,5.24
2023-01-17T08:32:06.666Z,5.27
2023-01-17T08:35:09.606Z,5.23
2023-01-17T08:38:11.912Z,5.13
2023-01-17T08:41:14.386Z,5.10
2023-01-17T08:44:17.044Z,5.26
2023-01-17T08:47:19.435Z,5.32
2023-01-17T08:50:21.660Z,5.27
2023-01-17T08:53:24.098Z,5.27
2023-01-17T08:56:27.330Z,5.42
2023-01-17T08:59:29.847Z,5.58
2023-01-17T09:02:31.939Z,5.77
2023-01-17T09:05:34.333Z,5.79
2023-01-17T09:08:36.986Z,5.73
2023-01-17T09:11:39.622Z,5.67
2023-01-17T09:14:41.802Z,5.78
2023-01-17T09:17:44.323Z,5.82
2023-01-17T09:20:46.453Z,5.96
2023-01-17T09:23:49.147Z,5.93
2023-01-17T09:26:51.276Z,6.05
2023-01-17T09:29:53.653Z,5.99
2023-01-17T09:32:56.383Z,5.91
2023-01-17T09:36:01.357Z,6.03
2023-01-17T09:39:04.224Z,6.13
2023-01-17T09:42:18.617Z,6.14
2023-01-17T09:45:21.242Z,6.27
2023-01-17T09:48:32.830Z,6.31
2023-01-17T09:51:36.418Z,6.46
2023-01-17T09:54:44.586Z,6.47
2023-01-17T09:57:46.582Z,6.58
2023-01-17T10:01:00.345Z,6.70
2023-01-17T10:04:24.381Z,6.68
2023-01-17T10:08:04.728Z,6.61
2023-01-17T10:11:24.036Z,6.64
2023-01-17T10:14:26.373Z,6.72
2023-01-17T10:17:41.619Z,6.73
2023-01-17T10:21:46.563Z,6.69
2023-01-17T10:24:58.733Z,6.73
2023-01-17T10:28:06.524Z,6.80
2023-01-17T10:31:19.962Z,6.94
2023-01-17T10:34:30.142Z,7.32
2023-01-17T10:37:43.579Z,7.25
2023-01-17T10:41:00.199Z,7.27
2023-01-17T10:44:29.570Z,7.28
2023-01-17T10:47:36.606Z,7.30
2023-01-17T10:50:52.846Z,7.27
2023-01-17T10:54:16.040Z,7.35
2023-01-17T10:57:23.862Z,7.48
2023-01-17T11:00:39.842Z,7.65
2023-01-17T11:03:44.182Z,7.60
2023-01-17T11:06:57.882Z,7.71
2023-01-17T11:10:00.794Z,7.83
2023-01-17T11:13:06.035Z,7.74
2023-01-17T11:16:18.320Z,7.84
2023-01-17T11:19:38.483Z,7.88
2023-01-17T11:22:46.093Z,7.71
2023-01-17T11:26:03.158Z,7.75
2023-01-17T11:29:27.629Z,7.76
2023-01-17T11:32:34.465Z,7.76
2023-01-17T11:35:44.212Z,7.85
2023-01-17T11:39:03.413Z,7.78
2023-01-17T11:42:26.203Z,7.78
2023-01-17T11:45:31.212Z,7.83
2023-01-17T11:48:36.513Z,7.80
2023-01-17T11:51:43.173Z,8.01
2023-01-17T11:54:47.623Z,8.10
2023-01-17T11:57:50.895Z,8.13
2023-01-17T12:01:02.161Z,8.22
2023-01-17T12:04:23.514Z,8.18
2023-01-17T12:07:31.592Z,8.22
2023-01-17T12:10:43.002Z,8.26
2023-01-17T12:14:03.345Z,8.22
2023-01-17T12:17:41.366Z,8.24
2023-01-17T12:21:00.522Z,8.28
2023-01-17T12:24:09.390Z,8.41
2023-01-17T12:27:24.592Z,8.89
2023-01-17T12:30:57.799Z,9.13
2023-01-17T12:34:16.774Z,9.14
2023-01-17T12:37:23.082Z,8.98
2023-01-17T12:40:46.697Z,8.99
2023-01-17T12:43:54.303Z,9.01
2023-01-17T12:47:09.750Z,8.81
2023-01-17T12:50:28.548Z,8.81
2023-01-17T12:53:30.687Z,8.82
2023-01-17T12:56:58.183Z,8.72
2023-01-17T13:00:26.667Z,8.73
2023-01-17T13:03:43.455Z,8.73
2023-01-17T13:07:26.270Z,8.59
2023-01-17T13:10:38.144Z,8.69
2023-01-17T13:13:41.207Z,8.55
2023-01-17T13:16:58.597Z,8.41
2023-01-17T13:20:13.175Z,8.39
2023-01-17T13:23:54.104Z,8.45
2023-01-17T13:26:56.187Z,8.39
2023-01-17T13:30:23.776Z,8.39
2023-01-17T13:33:52.598Z,8.16
2023-01-17T13:37:33.569Z,8.12
2023-01-17T13:41:01.663Z,8.08
2023-01-17T13:44:22.962Z,7.99
2023-01-17T13:47:25.637Z,7.84
2023-01-17T13:50:36.757Z,7.85
2023-01-17T13:53:38.890Z,7.94
2023-01-17T13:56:41.667Z,7.87
2023-01-17T13:59:43.790Z,7.84
2023-01-17T14:02:46.572Z,7.99
2023-01-17T14:05:56.838Z,8.01
2023-01-17T14:09:08.037Z,7.85
2023-01-17T14:12:10.399Z,7.87
2023-01-17T14:15:23.844Z,7.77
2023-01-17T14:18:42.681Z,7.79
2023-01-17T14:21:44.997Z,7.87
2023-01-17T14:25:11.748Z,7.84
2023-01-17T14:28:31.670Z,7.68
2023-01-17T14:31:34.217Z,7.63
2023-01-17T14:34:36.697Z,7.68
2023-01-17T14:37:44.139Z,7.85
2023-01-17T14:40:54.068Z,7.83
2023-01-17T14:43:59.485Z,7.85
2023-01-17T14:47:01.702Z,7.69
2023-01-17T14:50:23.746Z,7.63
2023-01-17T14:53:31.220Z,7.75
2023-01-17T14:56:33.742Z,7.79
2023-01-17T14:59:35.775Z,7.65
2023-01-17T15:02:43.628Z,7.66
2023-01-17T15:05:47.052Z,7.68
2023-01-17T15:08:51.803Z,7.68
2023-01-17T15:11:55.625Z,7.66
2023-01-17T15:14:59.275Z,7.62
2023-01-17T15:18:09.261Z,7.62
2023-01-17T15:21:36.830Z,7.54
2023-01-17T15:24:44.698Z,7.58
2023-01-17T15:27:47.177Z,7.55
2023-01-17T15:31:08.726Z,7.61
2023-01-17T15:34:38.565Z,7.69
2023-01-17T15:37:41.722Z,7.92
2023-01-17T15:40:45.603Z,7.79
2023-01-17T15:43:48.146Z,7.82
2023-01-17T15:46:50.562Z,7.73
2023-01-17T15:49:53.251Z,7.72
2023-01-17T15:53:03.685Z,7.76
2023-01-17T15:56:32.381Z,7.70
2023-01-17T15:59:45.400Z,7.72
2023-01-17T16:02:55.729Z,7.64
2023-01-17T16:06:00.823Z,7.70
2023-01-17T16:09:04.636Z,7.65
2023-01-17T16:12:07.029Z,7.58
2023-01-17T16:15:13.567Z,7.54
2023-01-17T16:18:24.007Z,7.54
2023-01-17T16:21:29.431Z,7.57
2023-01-17T16:24:32.161Z,7.64
2023-01-17T16:27:34.240Z,7.68
2023-01-17T16:30:36.980Z,7.66
2023-01-17T16:33:39.407Z,7.63
2023-01-17T16:36:41.979Z,7.64
2023-01-17T16:39:44.118Z,7.56
